createdAt,value
2023-02-22T00:03:32.589Z,4.17
2023-02-22T00:08:37.158Z,4.09
2023-02-22T00:13:45.855Z,3.98
2023-02-22T00:18:50.327Z,3.84
2023-02-22T00:23:58.291Z,3.75
2023-02-22T00:29:01.457Z,3.69
2023-02-22T00:34:04.524Z,3.65
2023-02-22T00:39:08.517Z,3.61
2023-02-22T00:44:11.902Z,3.54
2023-02-22T00:49:17.248Z,3.49
2023-02-22T00:54:21.944Z,3.46
2023-02-22T00:59:24.735Z,3.43
2023-02-22T01:04:30.603Z,3.38
2023-02-22T01:09:35.106Z,3.31
2023-02-22T01:14:40.141Z,3.24
2023-02-22T01:19:43.243Z,3.20
2023-02-22T01:24:46.788Z,3.17
2023-02-22T01:29:50.285Z,3.12
2023-02-22T01:34:56.497Z,3.11
2023-02-22T01:39:59.365Z,3.12
2023-02-22T01:45:30.518Z,3.12
2023-02-22T01:50:37.566Z,3.09
2023-02-22T01:55:43.593Z,3.06
2023-02-22T02:00:45.834Z,3.06
2023-02-22T02:05:52.924Z,3.06
2023-02-22T02:10:58.098Z,3.03
2023-02-22T02:16:01.087Z,2.97
2023-02-22T02:21:16.451Z,2.90
2023-02-22T02:26:57.627Z,2.84
2023-02-22T02:32:27.550Z,2.79
2023-02-22T02:37:56.620Z,2.77
2023-02-22T02:43:29.612Z,2.74
2023-02-22T02:48:35.005Z,2.72
2023-02-22T02:53:43.223Z,2.73
2023-02-22T02:58:49.157Z,2.73
2023-02-22T03:04:38.193Z,2.75
2023-02-22T03:10:21.428Z,2.77
2023-02-22T03:16:06.448Z,2.78
2023-02-22T03:21:25.471Z,2.73
2023-02-22T03:26:36.369Z,2.63
2023-02-22T03:32:09.712Z,2.54
2023-02-22T03:37:19.457Z,2.47
2023-02-22T03:42:26.824Z,2.38
2023-02-22T03:47:40.073Z,2.26
2023-02-22T03:52:45.304Z,2.18
2023-02-22T03:58:05.141Z,2.08
2023-02-22T04:03:08.031Z,1.97
2023-02-22T04:08:13.730Z,1.90
2023-02-22T04:13:20.150Z,1.86
2023-02-22T04:18:28.875Z,1.81
2023-02-22T04:23:32.231Z,1.73
2023-02-22T04:28:34.788Z,1.66
2023-02-22T04:33:46.226Z,1.60
2023-02-22T04:38:52.222Z,1.52
2023-02-22T04:43:55.283Z,1.42
2023-02-22T04:49:01.373Z,1.32
2023-02-22T04:54:06.932Z,1.22
2023-02-22T04:59:17.265Z,1.11
2023-02-22T05:04:22.780Z,1.06
2023-02-22T05:09:27.582Z,1.03
2023-02-22T05:14:30.610Z,0.98
2023-02-22T05:19:36.254Z,0.91
2023-02-22T05:24:39.173Z,0.86
2023-02-22T05:29:41.640Z,0.77
2023-02-22T05:34:45.775Z,0.72
2023-02-22T05:39:48.622Z,0.72
2023-02-22T05:44:51.004Z,0.72
2023-02-22T05:49:57.752Z,0.75
2023-02-22T05:55:00.792Z,0.77
2023-02-22T06:00:06.928Z,0.76
2023-02-22T06:05:32.093Z,0.76
2023-02-22T06:10:36.653Z,0.74
2023-02-22T06:16:01.073Z,0.76
2023-02-22T06:21:04.534Z,0.79
2023-02-22T06:26:07.742Z,0.81
2023-02-22T06:31:11.313Z,0.88
2023-02-22T06:36:14.004Z,0.97
2023-02-22T06:41:19.008Z,1.13
2023-02-22T06:46:31.208Z,1.35
2023-02-22T06:51:37.717Z,1.54
2023-02-22T06:56:40.334Z,1.65
2023-02-22T07:01:45.141Z,1.75
2023-02-22T07:06:53.908Z,1.93
2023-02-22T07:11:58.737Z,2.11
2023-02-22T07:17:00.929Z,2.28
2023-02-22T07:22:02.986Z,2.46
2023-02-22T07:27:05.509Z,2.63
2023-02-22T07:32:08.371Z,2.84
2023-02-22T07:37:11.707Z,3.12
2023-02-22T07:42:14.731Z,3.40
2023-02-22T07:47:17.789Z,3.71
2023-02-22T07:52:21.599Z,3.95
2023-02-22T07:57:24.062Z,4.10
2023-02-22T08:02:26.709Z,4.22
2023-02-22T08:07:29.083Z,4.44
2023-02-22T08:12:31.697Z,4.63
2023-02-22T08:17:34.598Z,4.78
2023-02-22T08:22:37.045Z,4.87
2023-02-22T08:27:39.186Z,4.98
2023-02-22T08:32:46.678Z,5.14
2023-02-22T08:37:52.665Z,5.31
2023-02-22T08:42:55.416Z,5.40
2023-02-22T08:47:59.493Z,5.55
2023-02-22T08:53:04.133Z,5.67
2023-02-22T08:58:10.253Z,5.82
2023-02-22T09:03:14.956Z,5.99
2023-02-22T09:08:17.454Z,6.09
2023-02-22T09:13:19.698Z,6.26
2023-02-22T09:18:24.512Z,6.45
2023-02-22T09:23:28.591Z,6.60
2023-02-22T09:28:31.786Z,6.78
2023-02-22T09:33:35.244Z,6.97
2023-02-22T09:38:37.215Z,7.13
2023-02-22T09:43:49.864Z,7.30
2023-02-22T09:49:02.184Z,7.40
2023-02-22T09:54:15.096Z,7.58
2023-02-22T09:59:29.393Z,7.82
2023-02-22T10:04:45.389Z,8.12
2023-02-22T10:09:49.826Z,8.31
2023-02-22T10:15:29.149Z,8.42
2023-02-22T10:21:03.971Z,8.59
2023-02-22T10:26:46.904Z,8.67
2023-02-22T10:31:57.619Z,8.66
2023-02-22T10:37:25.648Z,8.72
2023-02-22T10:42:30.323Z,8.78
2023-02-22T10:47:33.939Z,9.08
2023-02-22T10:52:36.001Z,9.36
2023-02-22T10:57:42.419Z,9.55
2023-02-22T11:02:58.300Z,9.66
2023-02-22T11:08:23.096Z,9.69
2023-02-22T11:13:31.207Z,9.52
2023-02-22T11:18:35.235Z,9.39
2023-02-22T11:23:44.739Z,9.45
2023-02-22T11:28:56.607Z,9.60
2023-02-22T11:34:02.101Z,9.75
2023-02-22T11:39:11.525Z,9.83
2023-02-22T11:44:21.602Z,9.91
2023-02-22T11:49:33.312Z,9.86
2023-02-22T11:54:46.832Z,9.82
2023-02-22T12:00:24.609Z,9.73
2023-02-22T12:05:40.998Z,9.74
2023-02-22T12:11:01.126Z,9.85
2023-02-22T12:16:28.771Z,9.96
2023-02-22T12:21:36.684Z,10.06
2023-02-22T12:26:48.384Z,10.06
2023-02-22T12:32:19.854Z,10.04
2023-02-22T12:37:28.994Z,9.94
2023-02-22T12:42:54.686Z,9.86
2023-02-22T12:48:33.154Z,9.74
2023-02-22T12:54:01.525Z,9.68
2023-02-22T12:59:39.443Z,9.82
2023-02-22T13:04:47.979Z,9.93
2023-02-22T13:10:16.863Z,9.98
2023-02-22T13:15:53.678Z,10.05
2023-02-22T13:21:26.263Z,10.12
2023-02-22T13:26:46.281Z,10.12
2023-02-22T13:32:04.695Z,10.07
2023-02-22T13:37:41.490Z,10.02
2023-02-22T13:43:27.717Z,9.95
2023-02-22T13:48:58.450Z,10.07
2023-02-22T13:54:46.195Z,10.23
2023-02-22T13:59:49.759Z,10.30
2023-02-22T14:04:52.938Z,10.33
2023-02-22T14:09:57.487Z,10.32
2023-02-22T14:15:30.154Z,10.25
2023-02-22T14:20:38.263Z,10.15
2023-02-22T14:25:42.826Z,10.10
2023-02-22T14:30:54.144Z,10.05
2023-02-22T14:35:56.716Z,9.99
2023-02-22T14:41:00.583Z,9.81
2023-02-22T14:46:05.400Z,9.68
2023-02-22T14:51:25.060Z,9.64
2023-02-22T14:56:40.671Z,9.50
2023-02-22T15:02:09.609Z,9.30
2023-02-22T15:07:35.892Z,9.03
2023-02-22T15:13:09.502Z,8.81
2023-02-22T15:18:23.738Z,8.65
2023-02-22T15:23:33.377Z,8.55
2023-02-22T15:28:41.399Z,8.43
2023-02-22T15:33:52.999Z,8.31
2023-02-22T15:38:59.279Z,8.18
2023-02-22T15:44:22.690Z,7.99
2023-02-22T15:49:33.764Z,7.79
2023-02-22T15:54:52.196Z,7.54
2023-02-22T15:59:57.527Z,7.31
2023-02-22T16:05:07.302Z,7.14
2023-02-22T16:10:36.928Z,6.96
2023-02-22T16:15:39.439Z,6.73
2023-02-22T16:20:42.110Z,6.52
2023-02-22T16:25:44.879Z,6.32
2023-02-22T16:30:57.492Z,6.13
2023-02-22T16:36:04.823Z,5.94
2023-02-22T16:41:07.801Z,5.76
2023-02-22T16:46:09.815Z,5.60
2023-02-22T16:51:24.546Z,5.44
2023-02-22T16:56:30.904Z,5.28
2023-02-22T17:01:35.268Z,5.14
2023-02-22T17:06:37.855Z,5.03
2023-02-22T17:11:41.883Z,4.96
2023-02-22T17:16:47.042Z,4.88
2023-02-22T17:21:49.742Z,4.79
2023-02-22T17:26:53.292Z,4.70
2023-02-22T17:31:55.778Z,4.61
2023-02-22T17:36:58.241Z,4.51
2023-02-22T17:42:01.102Z,4.41
2023-02-22T17:47:09.200Z,4.30
2023-02-22T17:52:15.699Z,4.17
2023-02-22T17:57:21.570Z,4.05
2023-02-22T18:02:27.085Z,3.93
2023-02-22T18:07:32.356Z,3.82
2023-02-22T18:12:34.921Z,3.72
2023-02-22T18:17:47.598Z,3.65
2023-02-22T18:22:51.664Z,3.63
2023-02-22T18:27:55.072Z,3.67
2023-02-22T18:32:57.905Z,3.74
2023-02-22T18:38:00.943Z,3.86
2023-02-22T18:43:03.436Z,3.93
2023-02-22T18:48:06.671Z,3.98
2023-02-22T18:53:08.553Z,4.03
2023-02-22T18:58:11.184Z,4.07
2023-02-22T19:03:12.982Z,4.09
2023-02-22T19:08:15.653Z,4.11
2023-02-22T19:13:21.148Z,4.09
2023-02-22T19:18:23.766Z,4.05
2023-02-22T19:23:26.419Z,4.01
2023-02-22T19:28:34.065Z,4.00
2023-02-22T19:33:36.713Z,3.97
2023-02-22T19:38:39.420Z,3.93
2023-02-22T19:43:44.793Z,3.88
2023-02-22T19:48:48.836Z,3.87
2023-02-22T19:53:51.450Z,3.89
2023-02-22T19:58:57.336Z,3.93
2023-02-22T20:04:06.196Z,3.95
2023-02-22T20:09:14.175Z,3.94
2023-02-22T20:14:20.143Z,3.90
2023-02-22T20:19:22.965Z,3.85
2023-02-22T20:24:25.641Z,3.79
2023-02-22T20:29:31.592Z,3.77
2023-02-22T20:34:37.187Z,3.73
2023-02-22T20:39:39.956Z,3.67
2023-02-22T20:44:45.626Z,3.56
2023-02-22T20:49:48.070Z,3.42
2023-02-22T20:54:50.364Z,3.27
2023-02-22T20:59:52.348Z,3.14
2023-02-22T21:04:55.353Z,3.02
2023-02-22T21:09:58.155Z,2.88
2023-02-22T21:15:00.981Z,2.77
2023-02-22T21:20:10.126Z,2.65
2023-02-22T21:25:14.068Z,2.52
2023-02-22T21:30:17.034Z,2.39
2023-02-22T21:35:24.256Z,2.26
2023-02-22T21:40:27.579Z,2.16
2023-02-22T21:45:31.297Z,2.04
2023-02-22T21:50:37.867Z,1.98
2023-02-22T21:55:40.966Z,1.90
2023-02-22T22:00:43.226Z,1.83
2023-02-22T22:05:48.213Z,1.75
2023-02-22T22:10:55.389Z,1.68
2023-02-22T22:16:06.229Z,1.61
2023-02-22T22:21:14.029Z,1.51
2023-02-22T22:26:20.101Z,1.46
2023-02-22T22:31:24.810Z,1.39
2023-02-22T22:36:27.650Z,1.29
2023-02-22T22:41:29.752Z,1.19
2023-02-22T22:46:41.196Z,1.10
2023-02-22T22:51:47.528Z,1.05
2023-02-22T22:57:06.548Z,1.01
2023-02-22T23:02:11.462Z,0.96
2023-02-22T23:07:15.047Z,0.92
2023-02-22T23:12:31.358Z,0.87
2023-02-22T23:17:45.768Z,0.83
2023-02-22T23:22:48.884Z,0.74
2023-02-22T23:27:54.017Z,0.65
2023-02-22T23:32:57.213Z,0.58
2023-02-22T23:38:00.314Z,0.56
2023-02-22T23:43:11.831Z,0.55
2023-02-22T23:48:15.230Z,0.53
2023-02-22T23:53:18.635Z,0.53
2023-02-22T23:58:27.928Z,0.55
